Time;durP1;ratioP1;P1;durP2;ratioP2;P2;SDS_P1;SDS_P2;PMS_P1;PMS_P2;Temp;Humidity;BMP_temperature;BMP_pressure;BME280_temperature;BME280_humidity;BME280_pressure;Samples;Min_cycle;Max_cycle;Signal;HPM_P1;HPM_P2
2021/05/26 00:01:42;;;;;;;5.13;3.93;;;9.70;99.90;;;;;;5028657;28;20265;-81
2021/05/26 00:04:12;;;;;;;4.80;4.33;;;9.70;99.90;;;;;;5046374;28;20608;-81
2021/05/26 00:06:41;;;;;;;5.00;4.47;;;9.70;99.90;;;;;;5064302;28;20291;-81
2021/05/26 00:09:10;;;;;;;4.93;4.53;;;9.60;99.90;;;;;;5048339;28;20238;-81
2021/05/26 00:11:44;;;;;;;4.83;4.33;;;9.60;99.90;;;;;;5046064;28;20327;-81
2021/05/26 00:14:13;;;;;;;5.90;5.40;;;9.60;99.90;;;;;;5030653;28;20236;-82
2021/05/26 00:16:43;;;;;;;6.77;6.13;;;9.60;99.90;;;;;;5042365;28;20240;-81
2021/05/26 00:19:13;;;;;;;7.07;6.37;;;9.60;99.90;;;;;;5049401;28;20724;-81
2021/05/26 00:21:43;;;;;;;7.33;6.63;;;9.60;99.90;;;;;;5047942;28;20314;-82
2021/05/26 00:24:13;;;;;;;6.57;5.97;;;9.60;99.90;;;;;;5046776;28;20220;-81
2021/05/26 00:26:44;;;;;;;8.50;7.20;;;9.60;99.90;;;;;;5063238;28;20251;-81
2021/05/26 00:29:12;;;;;;;8.33;7.37;;;9.60;99.90;;;;;;5065744;28;20236;-81
2021/05/26 00:31:40;;;;;;;8.33;7.50;;;9.60;99.90;;;;;;5043839;28;20235;-81
2021/05/26 00:34:08;;;;;;;8.80;7.90;;;9.60;99.90;;;;;;5048184;28;20232;-80
2021/05/26 00:36:36;;;;;;;8.83;7.93;;;9.60;99.90;;;;;;5047974;28;20295;-81
2021/05/26 00:39:05;;;;;;;9.40;8.50;;;9.60;99.90;;;;;;5048724;28;20264;-82
2021/05/26 00:41:34;;;;;;;9.83;8.93;;;9.60;99.90;;;;;;5048137;28;20247;-81
2021/05/26 00:44:04;;;;;;;9.43;8.60;;;9.60;99.90;;;;;;5048636;28;20792;-81
2021/05/26 00:46:40;;;;;;;10.63;9.63;;;9.60;99.90;;;;;;5047991;28;20699;-81
2021/05/26 00:49:09;;;;;;;10.57;9.60;;;9.60;99.90;;;;;;5046972;28;20240;-81
2021/05/26 00:51:37;;;;;;;11.03;9.90;;;9.60;99.90;;;;;;5048320;28;20320;-81
2021/05/26 00:54:06;;;;;;;10.83;9.83;;;9.60;99.90;;;;;;5046692;28;20240;-81
2021/05/26 00:56:35;;;;;;;10.77;9.87;;;9.70;99.90;;;;;;5062901;28;20241;-81
2021/05/26 00:59:07;;;;;;;12.43;10.87;;;9.70;99.90;;;;;;5047069;28;20282;-81
2021/05/26 01:01:35;;;;;;;12.20;10.93;;;9.70;99.90;;;;;;5048242;28;20767;-82
2021/05/26 01:04:06;;;;;;;11.70;10.60;;;9.70;99.90;;;;;;5047379;28;20239;-81
2021/05/26 01:06:34;;;;;;;11.30;10.20;;;9.70;99.90;;;;;;5063350;28;20241;-81
2021/05/26 01:09:02;;;;;;;12.27;11.07;;;9.70;99.90;;;;;;5048637;28;20271;-81
2021/05/26 01:11:30;;;;;;;11.80;10.70;;;9.70;99.90;;;;;;5048058;28;20230;-81
2021/05/26 01:13:59;;;;;;;13.00;11.70;;;9.70;99.90;;;;;;5063330;28;20266;-81
2021/05/26 01:16:28;;;;;;;12.00;11.00;;;9.70;99.90;;;;;;5063008;28;20233;-82
2021/05/26 01:18:57;;;;;;;12.27;11.17;;;9.70;99.90;;;;;;5063120;28;20290;-81
2021/05/26 01:21:26;;;;;;;13.13;11.93;;;9.70;99.90;;;;;;5064513;28;20229;-81
2021/05/26 01:23:55;;;;;;;12.30;11.10;;;9.70;99.90;;;;;;5047993;28;20769;-81
2021/05/26 01:26:28;;;;;;;11.70;10.60;;;9.70;99.90;;;;;;5054242;28;20235;-81
2021/05/26 01:28:57;;;;;;;12.70;11.43;;;9.70;99.90;;;;;;5033370;28;20891;-80
2021/05/26 01:31:26;;;;;;;12.23;11.07;;;9.80;99.90;;;;;;5041556;28;20233;-81
2021/05/26 01:34:01;;;;;;;12.83;11.70;;;9.80;99.90;;;;;;5046630;28;20239;-81
2021/05/26 01:36:34;;;;;;;12.70;11.40;;;9.70;99.90;;;;;;5038353;28;20676;-81
2021/05/26 01:39:06;;;;;;;12.27;11.07;;;9.80;99.90;;;;;;5042843;28;20229;-81
2021/05/26 01:41:34;;;;;;;12.13;10.93;;;9.80;99.90;;;;;;5028954;28;20258;-81
2021/05/26 01:44:03;;;;;;;12.50;11.23;;;9.80;99.90;;;;;;5032131;28;20226;-81
2021/05/26 01:46:33;;;;;;;12.27;11.13;;;9.80;99.90;;;;;;5030653;28;20237;-81
2021/05/26 01:49:01;;;;;;;12.00;10.80;;;9.80;99.90;;;;;;5047598;28;20234;-81
2021/05/26 01:51:29;;;;;;;12.50;11.40;;;9.80;99.90;;;;;;5030041;28;20248;-81
2021/05/26 01:53:57;;;;;;;12.27;11.07;;;9.80;99.90;;;;;;5046985;28;20241;-81
2021/05/26 01:56:30;;;;;;;11.27;10.13;;;9.80;99.90;;;;;;5028482;28;20284;-81
2021/05/26 01:59:06;;;;;;;12.03;10.83;;;9.80;99.90;;;;;;5046843;28;20261;-82
2021/05/26 02:01:35;;;;;;;11.73;10.63;;;9.70;99.90;;;;;;5043070;28;20666;-82
2021/05/26 02:04:11;;;;;;;10.40;9.43;;;9.70;99.90;;;;;;5026741;28;20246;-81
2021/05/26 02:06:47;;;;;;;11.07;9.90;;;9.70;99.90;;;;;;5023258;28;20243;-81
2021/05/26 02:09:15;;;;;;;10.43;9.43;;;9.70;99.90;;;;;;5031493;28;20245;-81
2021/05/26 02:14:30;;;;;;;10.10;9.30;;;9.70;99.90;;;;;;5048392;28;20264;-81
2021/05/26 02:17:00;;;;;;;9.60;8.73;;;9.70;99.90;;;;;;5050764;28;20232;-81
2021/05/26 02:19:28;;;;;;;9.90;9.10;;;9.70;99.90;;;;;;5066676;28;20241;-81
2021/05/26 02:21:57;;;;;;;9.27;8.20;;;9.80;99.90;;;;;;5024342;28;20242;-81
2021/05/26 02:24:26;;;;;;;9.00;8.10;;;9.70;99.90;;;;;;5032411;28;20245;-81
2021/05/26 02:26:55;;;;;;;9.57;8.53;;;9.70;99.90;;;;;;5035025;28;20320;-81
2021/05/26 02:29:23;;;;;;;8.83;7.97;;;9.70;99.90;;;;;;5046709;28;20265;-80
2021/05/26 02:31:51;;;;;;;8.90;8.00;;;9.60;99.90;;;;;;5029217;28;20252;-81
2021/05/26 02:34:19;;;;;;;9.33;8.47;;;9.60;99.90;;;;;;5045938;28;20591;-81
2021/05/26 02:36:47;;;;;;;10.30;9.40;;;9.70;99.90;;;;;;5046805;28;20232;-81
2021/05/26 02:39:18;;;;;;;10.70;9.70;;;9.70;99.90;;;;;;5049572;28;20348;-81
2021/05/26 02:41:47;;;;;;;9.80;9.00;;;9.70;99.90;;;;;;5050667;28;20311;-81
2021/05/26 02:44:17;;;;;;;11.17;10.07;;;9.60;99.90;;;;;;5066166;28;20691;-81
2021/05/26 02:46:46;;;;;;;10.93;9.90;;;9.70;99.90;;;;;;5065671;28;20237;-81
2021/05/26 02:49:14;;;;;;;10.87;9.87;;;9.70;99.90;;;;;;5039809;28;20558;-81
2021/05/26 02:51:43;;;;;;;11.13;10.13;;;9.70;99.90;;;;;;5044789;28;20242;-81
2021/05/26 02:54:12;;;;;;;10.90;9.80;;;9.70;99.90;;;;;;5044428;28;20248;-81
2021/05/26 02:56:44;;;;;;;11.17;10.07;;;9.70;99.90;;;;;;5053998;28;20236;-81
2021/05/26 02:59:32;;;;;;;11.63;10.60;;;9.70;99.90;;;;;;5025433;28;20591;-81
2021/05/26 03:02:25;;;;;;;11.33;10.33;;;9.70;99.90;;;;;;5033536;28;20237;-82
2021/05/26 03:05:09;;;;;;;11.67;10.47;;;9.70;99.90;;;;;;5030015;28;20653;-80
2021/05/26 03:07:38;;;;;;;11.67;10.47;;;9.70;99.90;;;;;;5011313;28;20640;-81
2021/05/26 03:10:10;;;;;;;11.73;10.53;;;9.70;99.90;;;;;;5029114;28;20242;-81
2021/05/26 03:12:39;;;;;;;11.77;10.60;;;9.70;99.90;;;;;;5009865;28;20752;-82
2021/05/26 03:15:15;;;;;;;11.50;10.40;;;9.70;99.90;;;;;;5038792;28;20264;-81
2021/05/26 03:17:44;;;;;;;13.63;10.60;;;9.60;99.90;;;;;;5046937;28;20721;-81
2021/05/26 03:20:18;;;;;;;11.63;10.43;;;9.60;99.90;;;;;;5048212;28;20777;-80
2021/05/26 03:23:03;;;;;;;10.87;9.83;;;9.60;99.90;;;;;;5069921;28;20262;-81
2021/05/26 03:25:57;;;;;;;11.13;10.13;;;9.60;99.90;;;;;;5032023;28;20243;-81
2021/05/26 03:28:25;;;;;;;13.17;11.23;;;9.70;99.90;;;;;;5011755;28;20253;-81
2021/05/26 03:30:54;;;;;;;12.57;11.43;;;9.70;99.90;;;;;;5030469;28;20379;-81
2021/05/26 03:33:22;;;;;;;12.33;11.10;;;9.60;99.90;;;;;;5028029;28;20238;-81
2021/05/26 03:35:54;;;;;;;11.77;10.50;;;9.60;99.90;;;;;;5032728;28;20259;-81
2021/05/26 03:38:22;;;;;;;12.27;10.43;;;9.60;99.90;;;;;;5028415;28;20324;-81
2021/05/26 03:40:54;;;;;;;11.07;10.00;;;9.60;99.90;;;;;;5041532;28;20238;-81
2021/05/26 03:43:29;;;;;;;12.47;11.07;;;9.60;99.90;;;;;;5009526;28;20241;-81
2021/05/26 03:45:59;;;;;;;11.90;10.80;;;9.60;99.90;;;;;;5048212;28;20234;-81
2021/05/26 03:48:29;;;;;;;11.70;10.50;;;9.70;99.90;;;;;;5064143;28;20283;-81
2021/05/26 03:50:59;;;;;;;12.23;11.00;;;9.60;99.90;;;;;;5058463;28;20766;-82
2021/05/26 03:53:27;;;;;;;13.10;11.60;;;9.60;99.90;;;;;;5044432;28;20316;-81
2021/05/26 03:55:58;;;;;;;14.87;11.70;;;9.60;99.90;;;;;;5044459;28;20234;-81
2021/05/26 03:58:32;;;;;;;13.43;11.27;;;9.60;99.90;;;;;;5034528;28;20234;-82
2021/05/26 04:01:06;;;;;;;12.60;11.33;;;9.60;99.90;;;;;;5054480;28;20265;-81
2021/05/26 04:03:37;;;;;;;13.63;12.23;;;9.60;99.90;;;;;;5075626;28;20232;-81
2021/05/26 04:06:09;;;;;;;14.43;12.43;;;9.60;99.90;;;;;;5071374;28;20259;-81
2021/05/26 04:08:37;;;;;;;13.23;11.00;;;9.50;99.90;;;;;;5009655;28;20333;-81
2021/05/26 04:11:06;;;;;;;14.63;11.27;;;9.60;99.90;;;;;;5017851;28;20242;-81
2021/05/26 04:13:54;;;;;;;12.87;11.00;;;9.60;99.90;;;;;;5030087;28;20236;-81
2021/05/26 04:16:52;;;;;;;17.20;10.50;;;9.60;99.90;;;;;;5017651;28;20237;-81
2021/05/26 04:19:26;;;;;;;12.90;11.50;;;9.60;99.90;;;;;;5048056;28;20310;-81
2021/05/26 04:21:58;;;;;;;16.00;11.73;;;9.60;99.90;;;;;;5047159;28;20237;-81
2021/05/26 04:24:32;;;;;;;13.97;10.70;;;9.60;99.90;;;;;;5027655;28;20364;-81
2021/05/26 04:27:00;;;;;;;13.00;11.13;;;9.60;99.90;;;;;;5025667;28;20241;-81
2021/05/26 04:29:28;;;;;;;12.47;10.90;;;9.70;99.90;;;;;;5028996;28;20290;-82
2021/05/26 04:31:57;;;;;;;12.20;11.00;;;9.70;99.90;;;;;;5038262;28;20555;-81
2021/05/26 04:34:26;;;;;;;12.83;11.23;;;9.70;99.90;;;;;;5022346;28;20248;-82
2021/05/26 04:36:53;;;;;;;12.93;11.23;;;9.60;99.90;;;;;;5015521;28;20257;-81
2021/05/26 04:39:21;;;;;;;11.97;10.80;;;9.70;99.90;;;;;;5031472;28;20324;-81
2021/05/26 04:41:49;;;;;;;12.03;10.83;;;9.80;99.90;;;;;;5044903;28;20586;-81
2021/05/26 04:44:17;;;;;;;12.70;11.17;;;9.80;99.90;;;;;;5044282;28;20235;-81
2021/05/26 04:46:45;;;;;;;13.20;11.80;;;9.90;99.90;;;;;;5048633;28;20315;-80
2021/05/26 04:49:14;;;;;;;12.93;11.63;;;9.90;99.90;;;;;;5048678;28;20237;-81
2021/05/26 04:51:42;;;;;;;15.77;11.00;;;9.90;99.90;;;;;;5047707;28;20244;-81
2021/05/26 04:54:10;;;;;;;14.13;10.97;;;10.00;99.90;;;;;;5048083;28;20241;-80
2021/05/26 04:56:38;;;;;;;12.37;11.17;;;10.10;99.90;;;;;;5027423;28;20593;-80
2021/05/26 04:59:07;;;;;;;13.47;12.07;;;10.10;99.90;;;;;;5038996;28;20263;-81
2021/05/26 05:01:35;;;;;;;12.70;11.43;;;10.10;99.90;;;;;;5025969;28;20241;-81
2021/05/26 05:04:04;;;;;;;11.67;10.57;;;10.10;99.90;;;;;;5020124;28;20248;-81
2021/05/26 05:06:33;;;;;;;18.93;12.53;;;10.20;99.90;;;;;;5038750;28;20871;-80
2021/05/26 05:09:02;;;;;;;13.00;11.70;;;10.20;99.90;;;;;;5048325;28;20628;-81
2021/05/26 05:11:30;;;;;;;13.30;11.40;;;10.40;99.90;;;;;;5036250;28;20245;-80
2021/05/26 05:13:58;;;;;;;13.67;12.07;;;10.40;99.90;;;;;;5041269;28;20245;-81
2021/05/26 05:16:27;;;;;;;13.67;11.70;;;10.50;99.90;;;;;;5025805;28;20236;-80
2021/05/26 05:18:55;;;;;;;12.60;11.37;;;10.70;99.90;;;;;;5032969;28;20325;-82
2021/05/26 05:21:23;;;;;;;11.93;10.73;;;10.90;99.90;;;;;;5037621;28;20237;-81
2021/05/26 05:23:52;;;;;;;12.23;10.93;;;11.00;99.90;;;;;;5044002;28;20257;-81
2021/05/26 05:26:21;;;;;;;13.40;11.37;;;11.10;99.90;;;;;;5048238;28;20248;-81
2021/05/26 05:28:49;;;;;;;12.37;11.17;;;11.20;99.90;;;;;;5067449;28;20312;-81
2021/05/26 05:31:17;;;;;;;11.17;9.83;;;11.30;99.90;;;;;;5040412;28;20240;-81
2021/05/26 05:33:45;;;;;;;10.83;9.30;;;11.30;99.90;;;;;;5040588;28;20753;-81
2021/05/26 05:36:13;;;;;;;11.17;10.00;;;11.40;99.90;;;;;;5036902;28;20253;-81
2021/05/26 05:38:41;;;;;;;11.40;10.20;;;11.30;99.90;;;;;;5039974;28;20724;-82
2021/05/26 05:41:10;;;;;;;10.67;9.43;;;11.20;99.90;;;;;;5043454;28;20238;-81
2021/05/26 05:43:39;;;;;;;10.57;9.63;;;11.20;99.90;;;;;;5047298;28;20244;-80
2021/05/26 05:46:07;;;;;;;13.33;10.37;;;11.20;99.90;;;;;;5047285;28;20238;-80
2021/05/26 05:48:34;;;;;;;12.03;10.03;;;11.20;99.90;;;;;;5045360;28;20663;-81
2021/05/26 05:51:03;;;;;;;10.63;9.67;;;11.20;99.90;;;;;;5043669;28;20965;-81
2021/05/26 05:53:30;;;;;;;11.00;9.83;;;11.20;99.90;;;;;;5044164;28;20328;-82
2021/05/26 05:56:02;;;;;;;11.90;10.23;;;11.20;99.90;;;;;;5048789;28;20223;-81
2021/05/26 05:58:31;;;;;;;13.10;10.47;;;11.20;99.90;;;;;;5049784;28;20241;-81
2021/05/26 06:01:00;;;;;;;12.07;10.80;;;11.10;99.90;;;;;;5049983;28;20242;-81
2021/05/26 06:03:29;;;;;;;12.80;11.53;;;11.00;99.90;;;;;;5056583;28;20317;-81
2021/05/26 06:05:57;;;;;;;12.27;10.97;;;11.00;99.90;;;;;;5032336;28;20237;-80
2021/05/26 06:08:25;;;;;;;12.40;11.17;;;11.00;99.90;;;;;;5029437;28;20324;-81
2021/05/26 06:10:55;;;;;;;12.10;10.90;;;11.10;99.90;;;;;;5026981;28;20241;-80
2021/05/26 06:13:23;;;;;;;11.47;10.37;;;11.10;99.90;;;;;;5041893;28;20686;-80
2021/05/26 06:15:52;;;;;;;10.90;9.90;;;11.20;99.90;;;;;;5031379;28;20241;-80
2021/05/26 06:18:21;;;;;;;9.93;8.93;;;11.20;99.90;;;;;;5047185;28;20288;-80
2021/05/26 06:20:49;;;;;;;9.30;8.40;;;11.20;99.90;;;;;;5047490;28;20318;-79
2021/05/26 06:23:17;;;;;;;8.13;7.47;;;11.20;99.90;;;;;;5036111;28;20236;-81
2021/05/26 06:25:46;;;;;;;7.83;7.10;;;11.20;99.90;;;;;;5046327;28;20230;-81
2021/05/26 06:28:14;;;;;;;6.90;6.30;;;11.30;99.90;;;;;;5027050;28;20716;-81
2021/05/26 06:30:42;;;;;;;6.67;6.10;;;11.30;99.90;;;;;;5028392;28;20265;-81
2021/05/26 06:33:11;;;;;;;7.03;6.43;;;11.40;99.90;;;;;;5028624;28;20239;-81
2021/05/26 06:35:39;;;;;;;7.70;5.80;;;11.60;99.90;;;;;;5029591;28;20322;-81
2021/05/26 06:38:07;;;;;;;5.83;5.37;;;11.70;99.90;;;;;;5024508;28;20574;-81
2021/05/26 06:40:35;;;;;;;7.37;6.67;;;11.80;99.90;;;;;;5020206;28;20329;-80
2021/05/26 06:43:03;;;;;;;6.43;5.83;;;11.80;99.90;;;;;;5021435;28;20703;-81
2021/05/26 06:45:31;;;;;;;7.27;6.50;;;11.90;99.90;;;;;;5028692;28;20349;-81
2021/05/26 06:47:59;;;;;;;8.53;7.33;;;11.90;99.90;;;;;;5036041;28;20605;-81
2021/05/26 06:50:28;;;;;;;8.00;7.30;;;11.80;99.90;;;;;;5030163;28;20295;-81
2021/05/26 06:52:56;;;;;;;8.20;7.50;;;11.80;99.90;;;;;;5065130;28;20761;-80
2021/05/26 06:55:24;;;;;;;8.20;7.40;;;11.80;99.90;;;;;;5046144;28;20313;-80
2021/05/26 06:57:52;;;;;;;9.13;8.37;;;12.10;99.90;;;;;;5034013;28;20253;-79
2021/05/26 07:00:21;;;;;;;8.87;8.17;;;12.20;99.90;;;;;;5037711;28;20319;-79
2021/05/26 07:02:49;;;;;;;8.70;7.40;;;12.20;99.90;;;;;;5048731;28;20266;-80
2021/05/26 07:05:17;;;;;;;9.47;8.57;;;12.00;99.90;;;;;;5041117;28;20317;-80
2021/05/26 07:07:46;;;;;;;9.20;8.30;;;11.60;99.90;;;;;;5058558;28;20928;-80
2021/05/26 07:10:16;;;;;;;9.30;8.03;;;11.40;99.90;;;;;;5061646;28;20330;-80
2021/05/26 07:12:46;;;;;;;10.33;9.33;;;11.30;99.90;;;;;;5030499;28;20246;-80
2021/05/26 07:15:18;;;;;;;11.27;9.37;;;11.30;99.90;;;;;;5039799;28;20318;-80
2021/05/26 07:17:46;;;;;;;11.20;10.30;;;11.20;99.90;;;;;;5025867;28;20247;-80
2021/05/26 07:20:15;;;;;;;11.93;10.73;;;11.20;99.90;;;;;;5028542;28;20243;-80
2021/05/26 07:22:44;;;;;;;11.93;10.80;;;11.20;99.90;;;;;;5031623;28;20241;-79
2021/05/26 07:25:14;;;;;;;13.10;11.77;;;11.20;99.90;;;;;;5021251;28;20628;-80
2021/05/26 07:27:42;;;;;;;14.50;13.13;;;11.10;99.90;;;;;;5000921;28;20237;-80
2021/05/26 07:30:11;;;;;;;15.17;13.67;;;11.00;99.90;;;;;;5007665;28;20285;-80
2021/05/26 07:32:39;;;;;;;15.97;14.43;;;11.00;99.90;;;;;;5026144;28;20292;-80
2021/05/26 07:35:10;;;;;;;16.03;14.30;;;11.00;99.90;;;;;;5028287;28;20262;-80
2021/05/26 07:37:39;;;;;;;15.93;14.37;;;11.00;99.90;;;;;;5028495;28;20247;-80
2021/05/26 07:40:09;;;;;;;17.50;15.70;;;11.00;99.90;;;;;;5027927;28;20714;-79
2021/05/26 07:42:38;;;;;;;16.30;14.70;;;11.00;99.90;;;;;;5041157;28;20243;-79
2021/05/26 07:45:09;;;;;;;16.17;14.67;;;11.00;99.90;;;;;;5021734;28;21671;-79
2021/05/26 07:47:38;;;;;;;16.40;14.80;;;11.00;99.90;;;;;;5029758;28;20246;-79
2021/05/26 07:50:08;;;;;;;16.97;15.37;;;11.00;99.90;;;;;;5028284;28;20231;-79
2021/05/26 07:52:36;;;;;;;17.50;15.33;;;11.00;99.90;;;;;;5042240;28;20840;-79
2021/05/26 07:55:06;;;;;;;18.93;17.00;;;11.10;99.90;;;;;;5023997;28;20706;-79
2021/05/26 07:57:34;;;;;;;21.40;18.43;;;11.10;99.90;;;;;;5027506;28;20226;-80
2021/05/26 08:00:07;;;;;;;20.47;18.40;;;11.20;99.90;;;;;;5027139;28;20637;-79
2021/05/26 08:02:39;;;;;;;19.33;17.33;;;11.60;99.90;;;;;;5028170;28;20240;-79
2021/05/26 08:05:10;;;;;;;19.97;15.70;;;12.10;99.90;;;;;;5019021;28;20258;-80
2021/05/26 08:07:38;;;;;;;16.63;14.93;;;12.40;99.90;;;;;;5022051;28;20247;-80
2021/05/26 08:10:07;;;;;;;17.80;15.93;;;12.30;99.90;;;;;;5030734;28;20230;-80
2021/05/26 08:12:36;;;;;;;17.70;15.90;;;12.40;99.90;;;;;;5037121;28;20242;-80
2021/05/26 08:15:09;;;;;;;17.07;15.37;;;12.50;99.90;;;;;;5048842;28;20594;-80
2021/05/26 08:17:37;;;;;;;20.37;15.30;;;12.60;99.90;;;;;;5029508;28;20323;-80
2021/05/26 08:20:07;;;;;;;16.73;14.53;;;12.80;99.90;;;;;;5028228;28;20235;-80
2021/05/26 08:22:35;;;;;;;15.10;13.53;;;13.00;99.90;;;;;;5027417;28;20269;-80
2021/05/26 08:25:06;;;;;;;16.53;13.53;;;13.00;99.90;;;;;;5019845;28;20248;-80
2021/05/26 08:27:34;;;;;;;15.30;12.70;;;13.00;99.90;;;;;;5021465;28;20239;-80
2021/05/26 08:30:03;;;;;;;12.50;11.27;;;12.90;99.90;;;;;;5008850;28;20577;-80
2021/05/26 08:32:32;;;;;;;13.27;12.00;;;13.00;99.90;;;;;;5026229;28;20882;-80
2021/05/26 08:35:01;;;;;;;13.47;12.07;;;13.10;99.90;;;;;;5028425;28;20239;-80
2021/05/26 08:37:29;;;;;;;14.70;12.47;;;13.00;99.90;;;;;;5027310;28;20266;-80
2021/05/26 08:39:58;;;;;;;13.50;12.10;;;13.10;99.90;;;;;;5028432;28;20242;-80
2021/05/26 08:42:26;;;;;;;12.33;10.80;;;13.30;99.90;;;;;;5022105;28;20323;-80
2021/05/26 08:44:54;;;;;;;12.60;10.07;;;13.60;99.90;;;;;;5028373;28;20246;-80
2021/05/26 08:47:27;;;;;;;10.77;8.93;;;13.70;99.90;;;;;;5017744;28;20258;-80
2021/05/26 08:49:57;;;;;;;12.60;8.70;;;13.70;99.90;;;;;;5027786;28;20262;-79
2021/05/26 08:52:25;;;;;;;11.90;8.63;;;14.00;99.90;;;;;;5014809;28;20243;-80
2021/05/26 08:54:53;;;;;;;9.13;7.70;;;13.90;99.90;;;;;;5028444;28;20235;-80
2021/05/26 08:57:21;;;;;;;9.43;6.97;;;13.80;99.90;;;;;;5028205;28;20711;-80
2021/05/26 08:59:48;;;;;;;8.63;6.87;;;14.00;99.90;;;;;;5027876;28;20747;-80
2021/05/26 09:02:16;;;;;;;9.97;6.93;;;14.20;99.90;;;;;;5027175;28;20247;-79
2021/05/26 09:04:44;;;;;;;8.93;6.37;;;14.20;99.90;;;;;;5025222;28;20703;-79
2021/05/26 09:07:16;;;;;;;9.60;5.83;;;13.90;99.90;;;;;;5020789;28;20236;-80
2021/05/26 09:09:53;;;;;;;7.37;5.53;;;13.80;99.90;;;;;;5024197;28;20649;-80
2021/05/26 09:12:33;;;;;;;8.70;5.80;;;13.80;99.90;;;;;;5027110;28;20249;-80
2021/05/26 09:15:06;;;;;;;8.43;5.40;;;13.90;99.90;;;;;;5021783;28;20236;-81
2021/05/26 09:17:35;;;;;;;6.57;4.67;;;14.00;99.90;;;;;;5019184;28;20326;-79
2021/05/26 09:20:32;;;;;;;10.00;5.10;;;14.00;99.90;;;;;;5021620;28;20232;-80
2021/05/26 09:23:06;;;;;;;8.73;5.73;;;13.90;99.90;;;;;;4989625;28;20322;-80
2021/05/26 09:25:37;;;;;;;8.80;6.27;;;13.60;99.90;;;;;;5034906;28;20238;-79
2021/05/26 09:28:24;;;;;;;10.67;6.27;;;13.40;99.90;;;;;;5035532;28;20648;-80
2021/05/26 09:30:56;;;;;;;10.37;6.17;;;13.40;99.90;;;;;;5032553;28;20318;-79
2021/05/26 09:33:35;;;;;;;8.97;6.03;;;13.50;99.90;;;;;;5035135;28;20243;-80
2021/05/26 09:36:20;;;;;;;7.53;5.70;;;13.50;99.90;;;;;;5031766;28;20235;-79
2021/05/26 09:38:56;;;;;;;7.47;6.33;;;13.40;99.90;;;;;;5026506;28;20698;-79
2021/05/26 09:41:27;;;;;;;7.40;5.53;;;13.40;99.90;;;;;;5016290;28;20251;-80
2021/05/26 09:43:57;;;;;;;9.97;6.23;;;13.30;99.90;;;;;;5005927;28;20663;-80
2021/05/26 09:46:32;;;;;;;7.27;5.53;;;13.50;99.90;;;;;;5014708;28;20721;-79
2021/05/26 09:49:15;;;;;;;4.97;4.43;;;13.80;99.90;;;;;;4964340;28;20259;-80
2021/05/26 09:51:45;;;;;;;6.47;4.67;;;14.10;99.90;;;;;;1040253;28;10002081;-81
2021/05/26 09:54:18;;;;;;;5.33;4.07;;;14.00;99.90;;;;;;5030734;28;20478;-80
2021/05/26 09:56:49;;;;;;;5.60;4.03;;;13.80;99.90;;;;;;5017531;28;20282;-80
2021/05/26 09:59:18;;;;;;;8.17;3.97;;;13.50;99.90;;;;;;5025810;28;20244;-79
2021/05/26 10:01:48;;;;;;;7.40;4.63;;;13.20;99.90;;;;;;5013391;28;20238;-80
2021/05/26 10:04:16;;;;;;;6.23;4.47;;;12.80;99.90;;;;;;5020873;28;20238;-80
2021/05/26 10:06:56;;;;;;;6.97;4.90;;;12.60;99.90;;;;;;5020467;28;20243;-79
2021/05/26 10:09:34;;;;;;;7.20;4.80;;;12.40;99.90;;;;;;5028230;28;20332;-80
2021/05/26 10:12:17;;;;;;;7.40;5.20;;;12.30;99.90;;;;;;5049348;28;20272;-80
2021/05/26 10:14:46;;;;;;;6.33;4.77;;;12.40;99.90;;;;;;5029842;28;20239;-80
2021/05/26 10:17:20;;;;;;;5.60;4.57;;;12.60;99.90;;;;;;5013555;28;20239;-80
2021/05/26 10:19:50;;;;;;;6.90;4.80;;;12.80;99.90;;;;;;5009967;28;20598;-79
2021/05/26 10:22:18;;;;;;;7.77;5.07;;;13.00;99.90;;;;;;5026542;28;20237;-80
2021/05/26 10:24:49;;;;;;;5.23;4.23;;;13.50;99.90;;;;;;5028393;28;20250;-80
2021/05/26 10:27:32;;;;;;;5.13;3.67;;;14.00;99.90;;;;;;5022495;28;20258;-80
2021/05/26 10:30:02;;;;;;;6.30;3.93;;;14.10;99.90;;;;;;5044970;28;20239;-79
2021/05/26 10:32:58;;;;;;;5.47;3.57;;;14.00;99.90;;;;;;5017806;28;20239;-79
2021/05/26 10:35:29;;;;;;;5.63;3.70;;;13.80;99.90;;;;;;5025458;28;20694;-80
2021/05/26 10:38:02;;;;;;;5.63;3.80;;;13.40;99.90;;;;;;5029719;28;20235;-79
2021/05/26 10:40:44;;;;;;;5.60;3.53;;;13.00;99.90;;;;;;5027675;28;20324;-81
2021/05/26 10:43:35;;;;;;;5.97;3.60;;;12.70;99.90;;;;;;5009754;28;20587;-80
2021/05/26 10:46:06;;;;;;;3.93;3.53;;;12.80;99.90;;;;;;5029102;28;20235;-80
2021/05/26 10:49:09;;;;;;;4.27;3.53;;;13.20;99.90;;;;;;5023861;28;20666;-81
2021/05/26 10:52:08;;;;;;;4.37;3.50;;;13.50;99.90;;;;;;5033631;28;20239;-80
2021/05/26 10:54:59;;;;;;;3.93;3.50;;;13.50;99.90;;;;;;5040751;28;20625;-80
2021/05/26 10:57:30;;;;;;;3.70;3.10;;;13.70;99.90;;;;;;5040220;28;20239;-80
2021/05/26 11:00:28;;;;;;;5.40;3.50;;;13.90;99.90;;;;;;5042878;28;20711;-80
2021/05/26 11:03:42;;;;;;;3.60;3.30;;;13.90;99.90;;;;;;5026056;28;20227;-81
2021/05/26 11:06:40;;;;;;;4.57;3.10;;;13.90;99.90;;;;;;5041377;28;20281;-78
2021/05/26 11:09:10;;;;;;;4.00;3.50;;;14.00;99.90;;;;;;5037891;28;20706;-80
2021/05/26 11:11:53;;;;;;;3.53;3.23;;;14.10;99.90;;;;;;5103592;27;21375;-61
2021/05/26 11:14:41;;;;;;;4.63;3.40;;;13.90;99.90;;;;;;5101828;27;20319;-61
2021/05/26 11:17:25;;;;;;;5.83;3.43;;;14.00;99.90;;;;;;5100837;27;20272;-61
2021/05/26 11:20:11;;;;;;;4.83;2.83;;;14.10;99.90;;;;;;5138192;27;20270;-60
2021/05/26 11:22:39;;;;;;;5.17;3.37;;;14.20;99.90;;;;;;5102695;28;20707;-60
2021/05/26 11:25:09;;;;;;;4.90;3.10;;;14.40;99.90;;;;;;5104510;28;20245;-62
2021/05/26 11:27:50;;;;;;;4.23;3.13;;;14.60;99.90;;;;;;5103237;27;20232;-61
2021/05/26 11:30:22;;;;;;;6.20;3.63;;;14.50;99.90;;;;;;5104239;28;20232;-61
2021/05/26 11:32:50;;;;;;;4.53;3.20;;;14.40;99.90;;;;;;5103967;27;20241;-62
2021/05/26 11:35:18;;;;;;;3.90;3.20;;;14.40;99.90;;;;;;5103155;27;20313;-60
2021/05/26 11:37:45;;;;;;;4.40;3.27;;;14.30;99.90;;;;;;5088323;27;20257;-61
2021/05/26 11:40:18;;;;;;;3.53;3.10;;;14.30;99.90;;;;;;5087075;27;20227;-61
2021/05/26 11:42:47;;;;;;;3.77;3.30;;;14.20;99.90;;;;;;5083001;28;20349;-61
2021/05/26 11:45:15;;;;;;;3.70;3.40;;;14.20;99.90;;;;;;5083353;28;20725;-61
2021/05/26 11:47:45;;;;;;;5.73;3.60;;;14.30;99.90;;;;;;5083049;28;20738;-62
2021/05/26 11:50:30;;;;;;;3.93;3.00;;;14.90;99.90;;;;;;5082395;28;20279;-63
2021/05/26 11:53:17;;;;;;;3.30;2.97;;;15.60;99.90;;;;;;5078913;28;20234;-62
2021/05/26 11:55:52;;;;;;;4.00;3.60;;;16.10;99.90;;;;;;5079397;28;20666;-63
2021/05/26 11:58:36;;;;;;;3.67;3.37;;;16.30;99.90;;;;;;5081013;27;20594;-62
2021/05/26 12:01:12;;;;;;;5.33;3.70;;;16.30;99.90;;;;;;5084348;28;20283;-62
2021/05/26 12:03:40;;;;;;;4.70;4.20;;;16.60;99.90;;;;;;5079049;27;20252;-62
2021/05/26 12:06:08;;;;;;;5.37;4.83;;;16.40;99.90;;;;;;5081786;28;20238;-61
2021/05/26 12:08:41;;;;;;;5.20;4.40;;;16.00;99.90;;;;;;5100165;28;20287;-63
2021/05/26 12:11:11;;;;;;;6.97;4.47;;;15.60;99.90;;;;;;5105648;28;20315;-62
2021/05/26 12:13:41;;;;;;;7.20;4.33;;;15.60;99.90;;;;;;5109084;27;20256;-63
2021/05/26 12:16:11;;;;;;;5.43;4.10;;;15.70;99.90;;;;;;5100658;28;20234;-62
2021/05/26 12:18:48;;;;;;;4.53;4.13;;;15.70;99.90;;;;;;5106353;27;20237;-61
2021/05/26 12:21:16;;;;;;;6.90;4.37;;;15.80;99.90;;;;;;5099798;28;20741;-61
2021/05/26 12:23:48;;;;;;;6.90;4.27;;;15.90;99.90;;;;;;5087749;28;20333;-63
2021/05/26 12:26:24;;;;;;;3.80;3.33;;;15.90;99.90;;;;;;5087792;28;20284;-63
2021/05/26 12:28:54;;;;;;;5.43;4.00;;;16.10;99.90;;;;;;5086879;28;20242;-62
2021/05/26 12:31:27;;;;;;;5.77;3.80;;;16.20;99.90;;;;;;5066510;28;20254;-63
2021/05/26 12:33:55;;;;;;;4.20;2.10;;;15.90;99.90;;;;;;5067525;28;20693;-63
2021/05/26 12:36:24;;;;;;;2.00;1.30;;;14.90;99.90;;;;;;5070918;28;20668;-63
2021/05/26 12:38:58;;;;;;;2.50;1.10;;;14.20;99.90;;;;;;5064570;28;20239;-62
2021/05/26 12:41:30;;;;;;;0.73;0.70;;;13.90;99.90;;;;;;5064036;28;20238;-63
2021/05/26 12:44:00;;;;;;;1.03;0.77;;;13.70;99.90;;;;;;5066295;28;20239;-63
2021/05/26 12:46:39;;;;;;;2.70;0.70;;;13.50;99.90;;;;;;5067568;28;20265;-63
2021/05/26 12:49:08;;;;;;;1.37;0.83;;;13.40;99.90;;;;;;5052862;28;20839;-63
2021/05/26 12:51:44;;;;;;;0.80;0.70;;;13.30;99.90;;;;;;5063554;28;20697;-60
2021/05/26 12:54:12;;;;;;;1.67;0.80;;;13.10;99.90;;;;;;5065844;28;20739;-61
2021/05/26 12:56:49;;;;;;;0.97;0.93;;;13.00;99.90;;;;;;5065674;28;20718;-63
2021/05/26 12:59:34;;;;;;;1.20;0.90;;;13.10;99.90;;;;;;5062377;28;20318;-63
2021/05/26 13:02:06;;;;;;;1.03;0.80;;;13.20;99.90;;;;;;5062855;28;20298;-62
2021/05/26 13:04:34;;;;;;;0.80;0.77;;;13.30;99.90;;;;;;5067020;28;20345;-63
2021/05/26 13:07:02;;;;;;;0.90;0.77;;;13.40;99.90;;;;;;5064776;28;20246;-62